Time;durP1;ratioP1;P1;durP2;ratioP2;P2;SDS_P1;SDS_P2;PMS_P1;PMS_P2;Temp;Humidity;BMP_temperature;BMP_pressure;BME280_temperature;BME280_humidity;BME280_pressure;Samples;Min_cycle;Max_cycle;Signal;HPM_P1;HPM_P2
2022/05/09 00:04:09;;;;;;;7.80;2.85;;;;;;;;;;10363203;28;20087;-56
2022/05/09 00:09:07;;;;;;;4.80;2.67;;;;;;;;;;10361617;28;20040;-56
2022/05/09 00:14:06;;;;;;;3.15;2.50;;;;;;;;;;10361276;28;20059;-56
2022/05/09 00:19:06;;;;;;;4.68;2.55;;;;;;;;;;10362075;28;20040;-52
2022/05/09 00:24:05;;;;;;;4.20;2.30;;;;;;;;;;10361952;28;20075;-56
2022/05/09 00:29:04;;;;;;;6.55;2.60;;;;;;;;;;10361462;28;20052;-56
2022/05/09 00:34:03;;;;;;;13.90;2.97;;;;;;;;;;10359753;28;20051;-54
2022/05/09 00:39:02;;;;;;;5.40;2.75;;;;;;;;;;10357552;28;20068;-55
2022/05/09 00:44:02;;;;;;;4.97;2.70;;;;;;;;;;10360115;28;20072;-52
2022/05/09 00:49:04;;;;;;;5.75;2.28;;;;;;;;;;10359019;28;20098;-55
2022/05/09 00:54:03;;;;;;;8.00;2.90;;;;;;;;;;10359851;28;20071;-56
2022/05/09 00:59:05;;;;;;;2.53;2.03;;;;;;;;;;10359756;28;20051;-54
2022/05/09 01:04:05;;;;;;;7.90;2.80;;;;;;;;;;10358772;28;20044;-55
2022/05/09 01:09:05;;;;;;;6.20;2.58;;;;;;;;;;10356220;28;20084;-54
2022/05/09 01:14:04;;;;;;;4.13;2.67;;;;;;;;;;10359798;28;20052;-55
2022/05/09 01:19:07;;;;;;;5.50;2.22;;;;;;;;;;10358658;28;20067;-54
2022/05/09 01:24:13;;;;;;;6.78;2.22;;;;;;;;;;10359809;28;20075;-56
2022/05/09 01:29:14;;;;;;;3.13;2.15;;;;;;;;;;10357355;28;20052;-56
2022/05/09 01:34:15;;;;;;;6.07;3.05;;;;;;;;;;10358797;28;20082;-55
2022/05/09 01:39:14;;;;;;;6.63;2.58;;;;;;;;;;10357476;28;20071;-51
2022/05/09 01:44:13;;;;;;;4.07;2.65;;;;;;;;;;10356820;28;20485;-55
2022/05/09 01:54:26;;;;;;;;;;;;;;;;;;10356798;28;20148;-54
2022/05/09 01:59:26;;;;;;;5.57;2.65;;;;;;;;;;10357647;28;19934;-55
2022/05/09 02:04:24;;;;;;;4.15;2.63;;;;;;;;;;10356645;28;20083;-56
2022/05/09 02:09:23;;;;;;;2.95;2.47;;;;;;;;;;10356942;28;20083;-55
2022/05/09 02:14:21;;;;;;;5.97;3.20;;;;;;;;;;10356712;28;20086;-55
2022/05/09 02:19:20;;;;;;;6.70;3.30;;;;;;;;;;10354546;28;20044;-55
2022/05/09 02:24:19;;;;;;;6.68;2.90;;;;;;;;;;10356672;28;20052;-55
2022/05/09 02:29:17;;;;;;;5.93;3.20;;;;;;;;;;10356076;28;20048;-55
2022/05/09 02:34:15;;;;;;;5.45;3.15;;;;;;;;;;10357270;28;20036;-55
2022/05/09 02:39:15;;;;;;;8.98;3.03;;;;;;;;;;10352076;28;20059;-55
2022/05/09 02:44:14;;;;;;;4.43;2.78;;;;;;;;;;10352944;28;20080;-51
2022/05/09 02:49:13;;;;;;;10.30;2.20;;;;;;;;;;10354757;28;20044;-56
2022/05/09 02:54:12;;;;;;;3.22;2.20;;;;;;;;;;10354657;28;20088;-56
2022/05/09 02:59:12;;;;;;;6.38;2.65;;;;;;;;;;10355159;28;20082;-53
2022/05/09 03:09:27;;;;;;;5.53;3.03;;;;;;;;;;10359722;28;21397;-55
2022/05/09 03:14:27;;;;;;;11.45;7.78;;;;;;;;;;10363866;28;20071;-56
2022/05/09 03:19:25;;;;;;;7.07;5.00;;;;;;;;;;10363299;28;20328;-53
2022/05/09 03:24:24;;;;;;;4.35;3.50;;;;;;;;;;10363113;28;20118;-54
2022/05/09 03:29:24;;;;;;;4.95;3.15;;;;;;;;;;10362788;28;20489;-54
2022/05/09 03:34:23;;;;;;;5.53;3.40;;;;;;;;;;10361332;28;20052;-56
2022/05/09 03:39:22;;;;;;;4.30;2.55;;;;;;;;;;10362467;28;20048;-55
2022/05/09 03:44:20;;;;;;;6.70;3.28;;;;;;;;;;10360433;28;20086;-55
2022/05/09 03:49:19;;;;;;;7.82;3.22;;;;;;;;;;10362455;28;20044;-56
2022/05/09 03:54:19;;;;;;;7.78;2.88;;;;;;;;;;10358326;28;20067;-55
2022/05/09 03:59:17;;;;;;;8.18;3.70;;;;;;;;;;10361579;28;20090;-55
2022/05/09 04:04:15;;;;;;;2.80;2.60;;;;;;;;;;10360835;28;20075;-54
2022/05/09 04:09:13;;;;;;;4.20;2.53;;;;;;;;;;10360645;28;20425;-55
2022/05/09 04:14:13;;;;;;;4.10;2.58;;;;;;;;;;10357602;28;20059;-54
2022/05/09 04:19:11;;;;;;;4.45;3.03;;;;;;;;;;10357488;28;20068;-56
2022/05/09 04:24:09;;;;;;;3.65;2.67;;;;;;;;;;10358053;28;20071;-52
2022/05/09 04:29:08;;;;;;;17.52;12.10;;;;;;;;;;10358355;28;20067;-56
2022/05/09 04:34:08;;;;;;;14.65;10.88;;;;;;;;;;10359096;28;20040;-56
2022/05/09 04:39:06;;;;;;;11.43;2.95;;;;;;;;;;10357601;28;20494;-56
2022/05/09 04:44:05;;;;;;;9.35;3.05;;;;;;;;;;10354056;28;20079;-55
2022/05/09 04:49:03;;;;;;;30.63;21.10;;;;;;;;;;10356153;28;20040;-57
2022/05/09 04:54:03;;;;;;;4.10;3.50;;;;;;;;;;10355885;28;20086;-56
2022/05/09 04:59:01;;;;;;;7.90;4.00;;;;;;;;;;10355876;28;20515;-56
2022/05/09 05:04:00;;;;;;;8.40;5.10;;;;;;;;;;10354838;28;20488;-54
2022/05/09 05:08:58;;;;;;;10.57;3.90;;;;;;;;;;10350697;28;20063;-55
2022/05/09 05:13:58;;;;;;;11.05;3.60;;;;;;;;;;10314903;28;1137098;-57
2022/05/09 05:18:56;;;;;;;14.65;4.20;;;;;;;;;;10356910;28;20075;-57
2022/05/09 05:23:56;;;;;;;12.52;4.30;;;;;;;;;;10355973;28;20528;-57
2022/05/09 05:28:54;;;;;;;13.50;4.38;;;;;;;;;;10354782;28;20070;-58
2022/05/09 05:33:55;;;;;;;8.43;4.32;;;;;;;;;;10353408;28;20102;-55
2022/05/09 05:38:53;;;;;;;14.70;3.85;;;;;;;;;;10355896;28;20079;-53
2022/05/09 05:43:51;;;;;;;14.10;5.10;;;;;;;;;;10356777;28;20072;-56
2022/05/09 05:48:49;;;;;;;10.65;4.68;;;;;;;;;;10358466;28;20417;-57
2022/05/09 05:53:49;;;;;;;11.45;4.85;;;;;;;;;;10352510;28;20351;-56
2022/05/09 05:58:47;;;;;;;23.10;12.68;;;;;;;;;;10353886;28;20064;-56
2022/05/09 06:03:46;;;;;;;13.10;6.15;;;;;;;;;;10354101;28;20071;-55
2022/05/09 06:08:45;;;;;;;11.70;4.10;;;;;;;;;;10353247;28;20067;-55
2022/05/09 06:13:45;;;;;;;7.03;4.15;;;;;;;;;;10354842;28;20095;-58
2022/05/09 06:18:45;;;;;;;11.55;4.07;;;;;;;;;;10351001;28;20068;-58
2022/05/09 06:23:43;;;;;;;8.93;4.38;;;;;;;;;;10351185;28;20079;-59
2022/05/09 06:28:41;;;;;;;8.73;4.57;;;;;;;;;;10356676;28;20448;-58
2022/05/09 06:33:41;;;;;;;20.50;4.63;;;;;;;;;;10356163;28;20359;-56
2022/05/09 06:38:39;;;;;;;16.17;5.07;;;;;;;;;;10351284;28;20075;-59
2022/05/09 06:43:37;;;;;;;11.82;4.07;;;;;;;;;;10347851;28;20508;-58
2022/05/09 06:48:35;;;;;;;9.05;3.65;;;;;;;;;;10351250;28;20064;-58
2022/05/09 06:53:35;;;;;;;8.57;4.05;;;;;;;;;;10355111;28;20052;-59
2022/05/09 06:58:35;;;;;;;21.90;13.93;;;;;;;;;;10355849;28;20075;-59
2022/05/09 07:03:34;;;;;;;7.68;4.60;;;;;;;;;;10355643;28;20072;-58
2022/05/09 07:08:34;;;;;;;15.27;5.53;;;;;;;;;;10354856;28;20072;-58
2022/05/09 07:13:34;;;;;;;12.00;5.45;;;;;;;;;;10350777;28;20059;-57
2022/05/09 07:18:32;;;;;;;14.38;5.55;;;;;;;;;;10354936;28;20547;-57
2022/05/09 07:23:30;;;;;;;5.60;3.90;;;;;;;;;;10354859;28;20080;-58
2022/05/09 07:28:29;;;;;;;8.73;4.10;;;;;;;;;;10355021;28;20043;-57
2022/05/09 07:33:29;;;;;;;8.98;3.72;;;;;;;;;;10354425;28;20071;-58
2022/05/09 07:38:28;;;;;;;11.95;3.17;;;;;;;;;;10354510;28;20075;-57
2022/05/09 07:43:27;;;;;;;5.50;2.80;;;;;;;;;;10354397;28;20080;-58
2022/05/09 07:48:26;;;;;;;9.70;3.75;;;;;;;;;;10354688;28;20044;-59
2022/05/09 07:53:27;;;;;;;8.23;3.72;;;;;;;;;;10356478;28;20036;-59
2022/05/09 07:58:30;;;;;;;5.63;3.55;;;;;;;;;;10361377;28;20079;-59
2022/05/09 08:03:30;;;;;;;8.85;2.75;;;;;;;;;;10362129;28;20493;-59
2022/05/09 08:08:30;;;;;;;5.57;2.60;;;;;;;;;;10361874;28;20083;-59
2022/05/09 08:13:30;;;;;;;1.70;1.48;;;;;;;;;;10361883;28;20059;-60
2022/05/09 08:18:32;;;;;;;2.70;2.10;;;;;;;;;;10361685;28;20047;-59
2022/05/09 08:23:32;;;;;;;6.72;2.20;;;;;;;;;;10361272;28;20512;-59
2022/05/09 08:28:30;;;;;;;5.18;1.98;;;;;;;;;;10360745;28;20044;-59
2022/05/09 08:33:29;;;;;;;3.72;2.10;;;;;;;;;;10358139;28;20513;-59
2022/05/09 08:38:27;;;;;;;5.65;2.53;;;;;;;;;;10359712;28;20078;-59
2022/05/09 08:43:32;;;;;;;2.63;1.92;;;;;;;;;;10360311;28;20055;-59
2022/05/09 08:48:42;;;;;;;7.78;2.25;;;;;;;;;;10359433;28;20067;-59
2022/05/09 08:53:42;;;;;;;4.32;1.85;;;;;;;;;;10360095;28;20142;-59
2022/05/09 08:58:44;;;;;;;2.28;1.92;;;;;;;;;;10359656;28;20464;-59
2022/05/09 09:03:49;;;;;;;5.60;1.52;;;;;;;;;;10357725;28;20098;-59
2022/05/09 09:08:58;;;;;;;5.13;1.50;;;;;;;;;;10358236;28;20516;-59
2022/05/09 09:14:03;;;;;;;4.43;2.80;;;;;;;;;;10360132;28;20513;-59
2022/05/09 09:19:06;;;;;;;3.47;2.55;;;;;;;;;;10359485;28;20517;-59
2022/05/09 09:24:12;;;;;;;6.15;2.63;;;;;;;;;;10359662;28;20339;-59
2022/05/09 09:29:14;;;;;;;5.93;3.45;;;;;;;;;;10359091;28;20051;-58
2022/05/09 09:34:18;;;;;;;4.60;3.15;;;;;;;;;;10358609;28;20043;-59
2022/05/09 09:39:19;;;;;;;3.80;2.60;;;;;;;;;;10356948;28;20044;-58
2022/05/09 09:44:20;;;;;;;7.93;4.43;;;;;;;;;;10358401;28;20090;-59
2022/05/09 09:49:19;;;;;;;7.30;3.22;;;;;;;;;;10357943;28;20059;-59
2022/05/09 09:54:18;;;;;;;7.40;3.05;;;;;;;;;;10357766;28;20075;-59
2022/05/09 09:59:18;;;;;;;3.90;1.98;;;;;;;;;;10357486;28;20106;-59
2022/05/09 10:04:27;;;;;;;5.10;2.90;;;;;;;;;;10358463;28;20606;-59
2022/05/09 10:09:26;;;;;;;6.03;3.05;;;;;;;;;;10357037;28;20394;-59
2022/05/09 10:14:32;;;;;;;14.20;11.45;;;;;;;;;;10357437;28;20099;-59
2022/05/09 10:19:32;;;;;;;8.20;4.07;;;;;;;;;;10356902;28;20075;-59
2022/05/09 10:24:49;;;;;;;5.63;3.00;;;;;;;;;;10356840;28;20082;-57
2022/05/09 10:29:56;;;;;;;5.18;3.13;;;;;;;;;;10355167;28;20500;-59
2022/05/09 10:34:59;;;;;;;6.35;4.03;;;;;;;;;;10355033;28;20072;-59
2022/05/09 10:40:00;;;;;;;4.07;2.60;;;;;;;;;;10356971;28;20458;-59
2022/05/09 10:45:04;;;;;;;5.47;2.63;;;;;;;;;;10356109;28;20076;-59
2022/05/09 10:50:09;;;;;;;3.97;2.50;;;;;;;;;;10355861;28;20489;-59
2022/05/09 10:55:11;;;;;;;3.17;2.03;;;;;;;;;;10356519;28;20093;-59
2022/05/09 11:00:11;;;;;;;6.72;1.90;;;;;;;;;;10351541;28;20044;-59
2022/05/09 11:05:11;;;;;;;4.30;3.03;;;;;;;;;;10351781;28;20083;-59
2022/05/09 11:10:26;;;;;;;5.25;1.98;;;;;;;;;;10355044;28;20091;-59
2022/05/09 11:15:29;;;;;;;2.80;1.90;;;;;;;;;;10351949;28;20075;-59
2022/05/09 11:20:35;;;;;;;3.63;2.03;;;;;;;;;;10356059;28;20047;-59
2022/05/09 11:25:43;;;;;;;6.65;3.78;;;;;;;;;;10355906;28;20087;-60
2022/05/09 11:30:43;;;;;;;4.63;1.73;;;;;;;;;;10354849;28;20087;-60
2022/05/09 11:35:42;;;;;;;8.00;3.60;;;;;;;;;;10362482;28;20071;-57
2022/05/09 11:40:46;;;;;;;7.28;1.73;;;;;;;;;;10362064;28;20079;-57
2022/05/09 11:45:45;;;;;;;;;;;;;;;;;;10358946;28;20083;-58
2022/05/09 11:50:47;;;;;;;4.20;2.20;;;;;;;;;;10358898;28;19963;-58
2022/05/09 11:55:48;;;;;;;1.63;1.33;;;;;;;;;;10362564;28;20123;-58
2022/05/09 12:00:52;;;;;;;2.42;2.10;;;;;;;;;;10361597;28;20076;-58
2022/05/09 12:06:00;;;;;;;4.03;1.38;;;;;;;;;;10361406;28;20082;-58
2022/05/09 12:11:13;;;;;;;2.60;2.20;;;;;;;;;;10361326;28;20087;-58
2022/05/09 12:16:31;;;;;;;2.30;1.83;;;;;;;;;;10358735;28;20407;-58
2022/05/09 12:21:37;;;;;;;4.47;2.53;;;;;;;;;;10360949;28;20437;-57
2022/05/09 12:26:36;;;;;;;5.93;4.35;;;;;;;;;;10360803;28;20087;-58
2022/05/09 12:31:39;;;;;;;9.88;2.75;;;;;;;;;;10354071;28;20055;-57
2022/05/09 12:36:44;;;;;;;6.28;3.17;;;;;;;;;;10360461;28;20040;-58
2022/05/09 12:41:45;;;;;;;3.03;2.25;;;;;;;;;;10360557;28;20619;-58
2022/05/09 12:46:45;;;;;;;4.78;3.42;;;;;;;;;;10361375;28;20068;-58
2022/05/09 12:51:46;;;;;;;4.55;3.30;;;;;;;;;;10360032;28;20082;-57
2022/05/09 12:56:47;;;;;;;4.60;1.85;;;;;;;;;;10359815;28;20068;-58
2022/05/09 13:01:51;;;;;;;2.65;1.67;;;;;;;;;;10359352;28;20083;-58
2022/05/09 13:07:12;;;;;;;4.88;2.25;;;;;;;;;;10359239;28;20080;-58
2022/05/09 13:12:22;;;;;;;1.98;1.60;;;;;;;;;;10359619;28;20113;-59
2022/05/09 13:17:29;;;;;;;3.42;2.35;;;;;;;;;;10359431;28;20067;-59
2022/05/09 13:22:31;;;;;;;5.68;2.65;;;;;;;;;;10352446;28;20086;-59
2022/05/09 13:27:29;;;;;;;5.13;2.83;;;;;;;;;;10358699;28;20071;-57
2022/05/09 13:32:30;;;;;;;7.40;2.30;;;;;;;;;;10358356;28;20551;-58
2022/05/09 13:37:31;;;;;;;4.35;2.53;;;;;;;;;;10358562;28;20117;-57
2022/05/09 13:42:31;;;;;;;5.90;2.25;;;;;;;;;;10357993;28;20083;-58
2022/05/09 13:47:30;;;;;;;3.10;1.80;;;;;;;;;;10357430;28;20082;-57
2022/05/09 13:52:32;;;;;;;5.18;2.17;;;;;;;;;;10356067;28;20433;-58
2022/05/09 13:57:35;;;;;;;5.00;1.98;;;;;;;;;;10357552;28;20067;-58
2022/05/09 14:02:34;;;;;;;4.00;2.33;;;;;;;;;;10355793;28;20082;-58
2022/05/09 14:07:38;;;;;;;5.82;2.97;;;;;;;;;;10357014;28;20087;-58
2022/05/09 14:12:37;;;;;;;5.68;4.18;;;;;;;;;;10356675;28;20075;-58
2022/05/09 14:17:37;;;;;;;4.72;2.42;;;;;;;;;;10356610;28;20048;-57
2022/05/09 14:22:37;;;;;;;7.25;4.82;;;;;;;;;;10356083;28;20048;-58
2022/05/09 14:32:53;;;;;;;9.93;6.78;;;;;;;;;;10355850;28;20075;-58
2022/05/09 14:37:54;;;;;;;2.83;1.63;;;;;;;;;;10356359;28;20457;-57
2022/05/09 14:42:55;;;;;;;2.40;2.03;;;;;;;;;;10356311;28;20059;-58
2022/05/09 14:47:55;;;;;;;5.45;4.82;;;;;;;;;;10356058;28;20078;-58
2022/05/09 14:52:58;;;;;;;2.58;1.98;;;;;;;;;;10355921;28;20497;-58
2022/05/09 14:57:59;;;;;;;8.40;4.38;;;;;;;;;;10355822;28;20078;-58
2022/05/09 15:03:00;;;;;;;6.38;5.57;;;;;;;;;;10358324;28;20090;-58
2022/05/09 15:08:00;;;;;;;3.42;3.13;;;;;;;;;;10363897;28;20486;-58
2022/05/09 15:12:59;;;;;;;4.72;3.53;;;;;;;;;;10364279;28;20099;-58
2022/05/09 15:17:57;;;;;;;5.07;3.35;;;;;;;;;;10363478;28;20083;-59
2022/05/09 15:22:57;;;;;;;13.95;5.82;;;;;;;;;;10363055;28;20145;-58
2022/05/09 15:27:57;;;;;;;6.57;4.95;;;;;;;;;;10362828;28;20103;-58
2022/05/09 15:32:56;;;;;;;2.63;1.98;;;;;;;;;;10363034;28;20079;-58
2022/05/09 15:37:55;;;;;;;3.78;3.17;;;;;;;;;;10362738;28;20084;-58
2022/05/09 15:42:54;;;;;;;5.10;3.50;;;;;;;;;;10362733;28;20461;-57
2022/05/09 15:47:54;;;;;;;6.63;2.80;;;;;;;;;;10362496;28;20087;-57
2022/05/09 15:52:52;;;;;;;4.63;2.45;;;;;;;;;;10362061;28;20052;-57
2022/05/09 15:57:58;;;;;;;6.90;2.30;;;;;;;;;;10362467;28;20079;-58
2022/05/09 16:02:58;;;;;;;5.38;3.45;;;;;;;;;;10361739;28;20520;-57
2022/05/09 16:13:12;;;;;;;7.53;5.43;;;;;;;;;;10361419;28;20079;-57
2022/05/09 16:18:18;;;;;;;3.72;2.53;;;;;;;;;;10361321;28;20086;-57
2022/05/09 16:23:18;;;;;;;3.33;2.58;;;;;;;;;;10355135;28;20079;-58
2022/05/09 16:28:20;;;;;;;8.10;5.82;;;;;;;;;;10360463;28;20091;-58
2022/05/09 16:33:20;;;;;;;8.82;6.28;;;;;;;;;;10354307;28;20083;-58
2022/05/09 16:38:19;;;;;;;10.52;4.97;;;;;;;;;;10360391;28;20052;-58
2022/05/09 16:43:20;;;;;;;10.23;6.10;;;;;;;;;;10360697;28;20071;-58
2022/05/09 16:48:20;;;;;;;5.20;3.33;;;;;;;;;;10360408;28;20088;-59
2022/05/09 16:53:19;;;;;;;6.43;5.00;;;;;;;;;;10360222;28;20070;-57
2022/05/09 16:58:19;;;;;;;11.70;9.93;;;;;;;;;;10359951;28;20076;-58
2022/05/09 17:03:17;;;;;;;16.33;11.55;;;;;;;;;;10359984;28;20579;-57
2022/05/09 17:08:17;;;;;;;7.68;5.22;;;;;;;;;;10360960;28;20139;-58
2022/05/09 17:13:21;;;;;;;8.90;5.20;;;;;;;;;;10360435;28;20056;-58
2022/05/09 17:18:19;;;;;;;25.63;20.88;;;;;;;;;;10358587;28;20048;-57
2022/05/09 17:23:19;;;;;;;16.95;12.73;;;;;;;;;;10357780;28;20436;-57
2022/05/09 17:28:18;;;;;;;25.13;17.02;;;;;;;;;;10358466;28;20536;-58
2022/05/09 17:33:17;;;;;;;6.88;3.70;;;;;;;;;;10359638;28;20068;-58
2022/05/09 17:38:16;;;;;;;12.73;3.58;;;;;;;;;;10358300;28;20073;-57
2022/05/09 17:43:16;;;;;;;9.93;4.22;;;;;;;;;;10357912;28;20084;-57
2022/05/09 17:48:14;;;;;;;16.25;7.95;;;;;;;;;;10351793;28;20086;-58
2022/05/09 17:53:13;;;;;;;10.82;3.85;;;;;;;;;;10351741;28;20051;-57
2022/05/09 17:58:11;;;;;;;27.48;6.20;;;;;;;;;;10349244;28;20079;-57
2022/05/09 18:03:12;;;;;;;17.02;6.18;;;;;;;;;;10356377;28;20048;-57
2022/05/09 18:08:10;;;;;;;6.00;3.90;;;;;;;;;;10349385;28;20102;-56
2022/05/09 18:13:10;;;;;;;8.70;3.78;;;;;;;;;;10356442;28;20461;-57
2022/05/09 18:18:10;;;;;;;6.25;3.30;;;;;;;;;;10357134;28;20107;-57
2022/05/09 18:23:10;;;;;;;8.82;2.53;;;;;;;;;;10354319;28;20090;-57
2022/05/09 18:28:10;;;;;;;4.30;2.53;;;;;;;;;;10355164;28;20082;-57
2022/05/09 18:33:09;;;;;;;4.82;2.38;;;;;;;;;;10356288;28;20474;-55
2022/05/09 18:38:21;;;;;;;5.03;2.33;;;;;;;;;;10350524;28;20497;-58
2022/05/09 18:43:19;;;;;;;4.28;2.33;;;;;;;;;;10356333;28;20047;-58
2022/05/09 18:48:17;;;;;;;4.50;2.28;;;;;;;;;;10355839;28;20090;-57
2022/05/09 18:53:16;;;;;;;3.05;2.10;;;;;;;;;;10352941;28;20067;-57
2022/05/09 18:58:19;;;;;;;6.47;2.00;;;;;;;;;;10351031;28;20064;-56
2022/05/09 19:03:17;;;;;;;4.10;1.67;;;;;;;;;;10353781;28;20076;-56
2022/05/09 19:08:20;;;;;;;3.10;2.00;;;;;;;;;;10350365;28;20505;-58
2022/05/09 19:13:21;;;;;;;4.53;2.25;;;;;;;;;;10352313;28;20564;-58
2022/05/09 19:18:20;;;;;;;4.47;3.35;;;;;;;;;;10352263;28;20090;-58
2022/05/09 19:23:18;;;;;;;7.57;3.17;;;;;;;;;;10352632;28;20173;-58
2022/05/09 19:28:18;;;;;;;2.35;2.05;;;;;;;;;;10351784;28;20071;-58
2022/05/09 19:33:25;;;;;;;4.35;2.33;;;;;;;;;;10353730;28;20084;-57
2022/05/09 19:38:24;;;;;;;4.20;2.28;;;;;;;;;;10350424;28;20502;-56
2022/05/09 19:43:24;;;;;;;5.63;3.53;;;;;;;;;;10351257;28;20083;-57
2022/05/09 19:48:24;;;;;;;3.63;1.90;;;;;;;;;;10352929;28;20078;-57
2022/05/09 19:58:39;;;;;;;3.25;1.90;;;;;;;;;;10359941;28;20064;-57
2022/05/09 20:03:57;;;;;;;3.17;1.85;;;;;;;;;;10361246;28;20078;-56
2022/05/09 20:09:07;;;;;;;4.40;2.05;;;;;;;;;;10361803;28;20098;-56
2022/05/09 20:14:06;;;;;;;2.50;1.75;;;;;;;;;;10357206;28;20063;-56
2022/05/09 20:19:05;;;;;;;8.23;1.80;;;;;;;;;;10359821;28;20070;-57
2022/05/09 20:24:08;;;;;;;6.90;1.73;;;;;;;;;;10359326;28;20067;-58
2022/05/09 20:34:23;;;;;;;4.32;1.73;;;;;;;;;;10352549;28;20064;-57
2022/05/09 20:39:21;;;;;;;4.13;1.65;;;;;;;;;;10357488;28;20068;-56
2022/05/09 20:44:23;;;;;;;4.13;1.58;;;;;;;;;;10358263;28;20603;-57
2022/05/09 20:49:23;;;;;;;2.03;1.75;;;;;;;;;;10357036;28;20074;-56
2022/05/09 20:54:21;;;;;;;4.68;2.40;;;;;;;;;;10357865;28;20093;-57
2022/05/09 20:59:20;;;;;;;3.25;1.80;;;;;;;;;;10358005;28;20040;-56
2022/05/09 21:04:18;;;;;;;3.92;1.60;;;;;;;;;;10358667;28;20075;-56
2022/05/09 21:09:18;;;;;;;3.00;1.70;;;;;;;;;;10359439;28;20063;-57
2022/05/09 21:14:17;;;;;;;2.08;1.58;;;;;;;;;;10360525;28;20083;-56
2022/05/09 21:19:15;;;;;;;5.45;1.98;;;;;;;;;;10358852;28;20075;-57
2022/05/09 21:24:14;;;;;;;6.28;2.40;;;;;;;;;;10358505;28;20082;-57
2022/05/09 21:29:13;;;;;;;7.22;2.33;;;;;;;;;;10358238;28;20068;-59
2022/05/09 21:34:11;;;;;;;5.10;3.00;;;;;;;;;;10356895;28;20067;-57
2022/05/09 21:44:30;;;;;;;2.15;1.95;;;;;;;;;;10357185;28;20478;-58
2022/05/09 21:49:31;;;;;;;4.97;2.10;;;;;;;;;;10352386;28;20060;-56
2022/05/09 21:54:30;;;;;;;5.68;2.22;;;;;;;;;;10357148;28;21362;-58
2022/05/09 21:59:30;;;;;;;3.08;1.80;;;;;;;;;;10357443;28;20615;-57
2022/05/09 22:04:29;;;;;;;4.70;2.28;;;;;;;;;;10357682;28;20619;-58
2022/05/09 22:09:31;;;;;;;2.88;2.00;;;;;;;;;;10355387;28;20079;-57
2022/05/09 22:14:32;;;;;;;3.35;2.00;;;;;;;;;;10355999;28;20055;-54
2022/05/09 22:19:30;;;;;;;3.80;1.90;;;;;;;;;;10356283;28;20043;-57
2022/05/09 22:24:29;;;;;;;5.80;2.28;;;;;;;;;;10355115;28;20087;-58
2022/05/09 22:29:33;;;;;;;5.55;1.92;;;;;;;;;;10356567;28;20067;-57
2022/05/09 22:34:34;;;;;;;5.45;2.00;;;;;;;;;;10356844;28;20040;-56
2022/05/09 22:39:38;;;;;;;4.07;2.20;;;;;;;;;;10355298;28;20105;-57
2022/05/09 22:44:38;;;;;;;4.38;1.92;;;;;;;;;;10350313;28;20525;-57
2022/05/09 22:49:39;;;;;;;6.90;1.88;;;;;;;;;;10351507;28;20068;-57
2022/05/09 22:54:39;;;;;;;4.72;2.05;;;;;;;;;;10354856;28;20072;-56
2022/05/09 22:59:37;;;;;;;4.20;1.98;;;;;;;;;;10353998;28;20079;-57
2022/05/09 23:04:36;;;;;;;6.38;2.63;;;;;;;;;;10356044;28;20064;-55
2022/05/09 23:09:35;;;;;;;4.57;2.53;;;;;;;;;;10355056;28;20115;-59
2022/05/09 23:14:36;;;;;;;4.68;1.80;;;;;;;;;;10355951;28;20044;-56
2022/05/09 23:19:34;;;;;;;6.03;2.22;;;;;;;;;;10355853;28;20466;-55
2022/05/09 23:24:33;;;;;;;4.70;1.98;;;;;;;;;;10357428;28;20082;-57
2022/05/09 23:29:32;;;;;;;8.05;1.85;;;;;;;;;;10363748;28;20071;-55
2022/05/09 23:34:31;;;;;;;2.72;1.90;;;;;;;;;;10364109;28;20071;-55
2022/05/09 23:39:29;;;;;;;4.68;1.73;;;;;;;;;;10363925;28;20636;-58
2022/05/09 23:44:28;;;;;;;3.55;1.90;;;;;;;;;;10363592;28;20047;-57
2022/05/09 23:49:30;;;;;;;5.05;2.08;;;;;;;;;;10362064;28;20071;-57
2022/05/09 23:54:30;;;;;;;2.40;2.03;;;;;;;;;;10362838;28;20115;-56
2022/05/09 23:59:29;;;;;;;3.63;1.73;;;;;;;;;;10362884;28;20894;-58
